Time;durP1;ratioP1;P1;durP2;ratioP2;P2;SDS_P1;SDS_P2;PMS_P1;PMS_P2;Temp;Humidity;BMP_temperature;BMP_pressure;BME280_temperature;BME280_humidity;BME280_pressure;Samples;Min_cycle;Max_cycle;Signal;HPM_P1;HPM_P2
2021/10/14 00:02:07;;;;;;;7.20;6.30;;;8.40;99.90;;;;;;5094902;28;20296;-65
2021/10/14 00:04:35;;;;;;;9.53;6.27;;;8.30;99.90;;;;;;5094957;28;20224;-64
2021/10/14 00:07:04;;;;;;;9.40;6.10;;;8.40;99.90;;;;;;5093918;28;20231;-65
2021/10/14 00:09:32;;;;;;;10.87;7.40;;;8.40;99.90;;;;;;5094363;28;20679;-65
2021/10/14 00:12:00;;;;;;;11.40;8.00;;;8.40;99.90;;;;;;5094798;28;20275;-65
2021/10/14 00:14:28;;;;;;;9.20;7.27;;;8.30;99.90;;;;;;5094252;28;20631;-64
2021/10/14 00:16:57;;;;;;;9.83;6.57;;;8.30;99.90;;;;;;5094370;28;20240;-64
2021/10/14 00:19:24;;;;;;;9.03;7.00;;;8.40;99.90;;;;;;5094751;28;20236;-64
2021/10/14 00:21:52;;;;;;;8.90;6.40;;;8.30;99.90;;;;;;5094492;28;20218;-65
2021/10/14 00:24:21;;;;;;;8.90;7.50;;;8.30;99.90;;;;;;5094607;28;20294;-66
2021/10/14 00:26:49;;;;;;;10.70;7.47;;;8.30;99.90;;;;;;5094047;28;20671;-65
2021/10/14 00:29:17;;;;;;;10.10;8.37;;;8.30;99.90;;;;;;5094009;28;20196;-65
2021/10/14 00:31:45;;;;;;;10.60;7.27;;;8.30;99.90;;;;;;5094562;28;20295;-65
2021/10/14 00:34:13;;;;;;;9.50;6.53;;;8.30;99.90;;;;;;5094112;28;20202;-65
2021/10/14 00:36:41;;;;;;;12.43;8.27;;;8.30;99.90;;;;;;5094191;28;20238;-65
2021/10/14 00:39:09;;;;;;;10.63;8.10;;;8.30;99.90;;;;;;5094139;28;20219;-65
2021/10/14 00:41:39;;;;;;;10.43;7.23;;;8.30;99.90;;;;;;5093670;28;20667;-66
2021/10/14 00:44:07;;;;;;;8.13;6.80;;;8.40;99.90;;;;;;5094146;28;20212;-66
2021/10/14 00:46:35;;;;;;;8.13;6.73;;;8.40;99.90;;;;;;5094056;28;20296;-65
2021/10/14 00:49:03;;;;;;;10.20;6.53;;;8.40;99.90;;;;;;5093955;28;20296;-65
2021/10/14 00:51:31;;;;;;;8.57;6.27;;;8.40;99.90;;;;;;5093769;28;20259;-66
2021/10/14 00:54:00;;;;;;;7.67;6.30;;;8.40;99.90;;;;;;5093795;28;20722;-66
2021/10/14 00:56:28;;;;;;;9.07;6.70;;;8.40;99.90;;;;;;5093664;28;20213;-64
2021/10/14 00:58:57;;;;;;;7.83;6.70;;;8.40;99.90;;;;;;5093637;28;20243;-65
2021/10/14 01:01:25;;;;;;;9.83;8.60;;;8.40;99.90;;;;;;5093685;28;20231;-65
2021/10/14 01:03:53;;;;;;;13.23;9.40;;;8.50;99.90;;;;;;5093374;28;20712;-65
2021/10/14 01:06:21;;;;;;;12.47;9.30;;;8.40;99.90;;;;;;5093487;28;20257;-65
2021/10/14 01:08:49;;;;;;;10.73;9.17;;;8.50;99.90;;;;;;5093195;28;20207;-65
2021/10/14 01:11:17;;;;;;;12.90;9.57;;;8.50;99.90;;;;;;5093519;28;20591;-66
2021/10/14 01:13:45;;;;;;;12.40;9.90;;;8.50;99.90;;;;;;5093418;28;20214;-65
2021/10/14 01:16:14;;;;;;;13.33;8.97;;;8.50;99.90;;;;;;5093632;28;20291;-64
2021/10/14 01:18:42;;;;;;;10.17;7.77;;;8.50;99.90;;;;;;5093000;28;20616;-65
2021/10/14 01:21:12;;;;;;;10.77;7.97;;;8.50;99.90;;;;;;5093484;28;20196;-66
2021/10/14 01:23:40;;;;;;;10.27;8.03;;;8.60;99.90;;;;;;5093074;28;20788;-64
2021/10/14 01:26:08;;;;;;;7.77;6.90;;;8.60;99.90;;;;;;5093189;28;20203;-65
2021/10/14 01:28:36;;;;;;;11.40;6.90;;;8.60;99.90;;;;;;5092780;28;20671;-65
2021/10/14 01:31:04;;;;;;;9.23;8.03;;;8.60;99.90;;;;;;5093384;28;20332;-65
2021/10/14 01:33:32;;;;;;;11.73;8.03;;;8.60;99.90;;;;;;5093183;28;20202;-65
2021/10/14 01:36:00;;;;;;;12.50;8.87;;;8.60;99.90;;;;;;5093091;28;20206;-65
2021/10/14 01:38:29;;;;;;;13.40;8.00;;;8.50;99.90;;;;;;5092883;28;20200;-64
2021/10/14 01:40:57;;;;;;;10.43;8.20;;;8.60;99.90;;;;;;5092843;28;20286;-66
2021/10/14 01:43:25;;;;;;;12.40;8.43;;;8.60;99.90;;;;;;5092865;28;20231;-65
2021/10/14 01:45:53;;;;;;;10.10;8.23;;;8.60;99.90;;;;;;5092999;28;20314;-65
2021/10/14 01:48:21;;;;;;;11.53;8.90;;;8.60;99.90;;;;;;5092946;28;20235;-65
2021/10/14 01:50:48;;;;;;;13.57;9.20;;;8.60;99.90;;;;;;5092858;28;20307;-64
2021/10/14 01:53:16;;;;;;;10.50;9.37;;;8.70;99.90;;;;;;5093044;28;20298;-67
2021/10/14 01:55:45;;;;;;;12.30;9.90;;;8.60;99.90;;;;;;5092810;28;20219;-68
2021/10/14 01:58:18;;;;;;;11.83;9.00;;;8.70;99.90;;;;;;5092616;28;20206;-67
2021/10/14 02:00:47;;;;;;;11.93;9.43;;;8.60;99.90;;;;;;5092764;28;20207;-67
2021/10/14 02:03:15;;;;;;;12.90;9.53;;;8.60;99.90;;;;;;5092633;28;20242;-67
2021/10/14 02:05:43;;;;;;;12.30;9.10;;;8.60;99.90;;;;;;5092691;28;20686;-66
2021/10/14 02:08:12;;;;;;;10.80;9.33;;;8.70;99.90;;;;;;5092459;28;20707;-67
2021/10/14 02:10:40;;;;;;;11.30;9.00;;;8.70;99.90;;;;;;5092169;28;20750;-66
2021/10/14 02:13:09;;;;;;;15.23;10.40;;;8.40;99.90;;;;;;5092427;28;20200;-65
2021/10/14 02:15:38;;;;;;;16.07;11.47;;;8.60;99.90;;;;;;5092681;28;20196;-66
2021/10/14 02:18:06;;;;;;;15.47;11.87;;;8.70;99.90;;;;;;5092777;28;20290;-66
2021/10/14 02:20:34;;;;;;;18.43;13.10;;;8.70;99.90;;;;;;5092521;28;20291;-65
2021/10/14 02:23:02;;;;;;;17.13;12.33;;;8.70;99.90;;;;;;5092573;28;20286;-67
2021/10/14 02:25:30;;;;;;;17.23;12.13;;;8.70;99.90;;;;;;5092689;28;20200;-66
2021/10/14 02:27:58;;;;;;;17.23;13.27;;;8.80;99.90;;;;;;5092090;28;20739;-66
2021/10/14 02:30:27;;;;;;;17.43;12.10;;;8.70;99.90;;;;;;5093163;28;20198;-67
2021/10/14 02:32:55;;;;;;;16.67;12.50;;;8.70;99.90;;;;;;5096619;28;20250;-66
2021/10/14 02:35:23;;;;;;;15.83;12.13;;;8.70;99.90;;;;;;5096788;28;20246;-65
2021/10/14 02:37:50;;;;;;;16.10;11.80;;;8.70;99.90;;;;;;5096686;28;20218;-67
2021/10/14 02:40:18;;;;;;;17.03;12.77;;;8.70;99.90;;;;;;5096313;28;20647;-66
2021/10/14 02:42:46;;;;;;;17.57;11.87;;;8.70;99.90;;;;;;5096279;28;20223;-66
2021/10/14 02:45:14;;;;;;;15.53;11.63;;;8.70;99.90;;;;;;5096479;28;20212;-66
2021/10/14 02:47:43;;;;;;;13.83;10.20;;;8.80;99.90;;;;;;5096190;28;20196;-66
2021/10/14 02:50:11;;;;;;;12.90;9.17;;;8.80;99.90;;;;;;5096361;28;20200;-66
2021/10/14 02:52:40;;;;;;;11.67;8.90;;;8.70;99.90;;;;;;5095906;28;20691;-66
2021/10/14 02:55:09;;;;;;;12.67;8.93;;;8.70;99.90;;;;;;5095895;28;20644;-67
2021/10/14 02:57:37;;;;;;;12.47;9.23;;;8.80;99.90;;;;;;5095672;28;20210;-66
2021/10/14 03:00:07;;;;;;;17.20;10.27;;;8.80;99.90;;;;;;5096154;28;20291;-67
2021/10/14 03:02:35;;;;;;;11.60;9.93;;;8.80;99.90;;;;;;5095782;28;20200;-65
2021/10/14 03:05:05;;;;;;;13.77;9.87;;;8.80;99.90;;;;;;5096010;28;20258;-66
2021/10/14 03:07:33;;;;;;;14.67;10.03;;;8.80;99.90;;;;;;5096061;28;20235;-66
2021/10/14 03:10:06;;;;;;;12.93;9.63;;;8.80;99.90;;;;;;5095825;28;20232;-66
2021/10/14 03:12:34;;;;;;;14.33;10.17;;;8.80;99.90;;;;;;5095389;28;20204;-66
2021/10/14 03:15:03;;;;;;;14.07;10.47;;;8.80;99.90;;;;;;5096012;28;20287;-66
2021/10/14 03:17:30;;;;;;;12.87;10.03;;;8.80;99.90;;;;;;5096165;28;20203;-66
2021/10/14 03:19:58;;;;;;;15.00;10.17;;;8.80;99.90;;;;;;5095487;28;20299;-66
2021/10/14 03:22:27;;;;;;;12.00;10.03;;;8.80;99.90;;;;;;5095838;28;20219;-67
2021/10/14 03:24:55;;;;;;;15.50;9.90;;;8.90;99.90;;;;;;5095908;28;20291;-66
2021/10/14 03:27:23;;;;;;;12.50;10.00;;;8.80;99.90;;;;;;5095420;28;20667;-66
2021/10/14 03:29:51;;;;;;;12.27;9.37;;;8.80;99.90;;;;;;5095543;28;20196;-67
2021/10/14 03:32:19;;;;;;;11.90;9.07;;;8.80;99.90;;;;;;5095312;28;20288;-66
2021/10/14 03:34:47;;;;;;;12.67;10.40;;;8.90;99.90;;;;;;5095558;28;20200;-66
2021/10/14 03:37:15;;;;;;;13.40;9.67;;;8.90;99.90;;;;;;5095347;28;20295;-65
2021/10/14 03:39:44;;;;;;;13.37;9.87;;;8.90;99.90;;;;;;5094943;28;20210;-65
2021/10/14 03:42:13;;;;;;;12.60;10.40;;;8.90;99.90;;;;;;5095199;28;20287;-66
2021/10/14 03:44:41;;;;;;;12.03;9.50;;;8.90;99.90;;;;;;5094983;28;20286;-65
2021/10/14 03:47:09;;;;;;;13.40;9.43;;;8.90;99.90;;;;;;5095247;28;20291;-65
2021/10/14 03:49:37;;;;;;;12.57;8.97;;;9.00;99.90;;;;;;5094995;28;20210;-65
2021/10/14 03:52:05;;;;;;;11.13;8.90;;;9.00;99.90;;;;;;5095151;28;20655;-65
2021/10/14 03:54:33;;;;;;;10.27;8.47;;;9.00;99.90;;;;;;5095225;28;20278;-64
2021/10/14 03:57:02;;;;;;;12.10;8.00;;;9.00;99.90;;;;;;5094732;28;20202;-65
2021/10/14 03:59:30;;;;;;;13.37;9.83;;;9.00;99.90;;;;;;5094791;28;20227;-65
2021/10/14 04:01:58;;;;;;;10.77;9.13;;;9.00;99.90;;;;;;5094928;28;20297;-65
2021/10/14 04:04:26;;;;;;;10.73;8.17;;;8.90;99.90;;;;;;5094999;28;20200;-65
2021/10/14 04:06:54;;;;;;;9.90;8.10;;;8.90;99.90;;;;;;5094548;28;20714;-65
2021/10/14 04:09:21;;;;;;;11.03;8.40;;;8.90;99.90;;;;;;5094800;28;20224;-65
2021/10/14 04:11:49;;;;;;;13.50;9.27;;;8.90;99.90;;;;;;5094353;28;20230;-66
2021/10/14 04:14:19;;;;;;;12.30;9.30;;;8.90;99.90;;;;;;5094100;28;20210;-65
2021/10/14 04:16:46;;;;;;;12.73;8.40;;;9.00;99.90;;;;;;5094314;28;20200;-66
2021/10/14 04:19:14;;;;;;;10.77;9.10;;;9.00;99.90;;;;;;5094168;28;20607;-65
2021/10/14 04:21:42;;;;;;;10.93;8.90;;;9.00;99.90;;;;;;5093827;28;20196;-65
2021/10/14 04:24:10;;;;;;;11.30;8.30;;;9.00;99.90;;;;;;5093994;28;20200;-65
2021/10/14 04:26:38;;;;;;;12.73;9.63;;;9.00;99.90;;;;;;5094268;28;20286;-66
2021/10/14 04:29:06;;;;;;;11.30;8.80;;;9.00;99.90;;;;;;5094195;28;20206;-66
2021/10/14 04:31:37;;;;;;;11.70;9.67;;;9.10;99.90;;;;;;5093894;28;20682;-65
2021/10/14 04:34:07;;;;;;;12.77;9.40;;;9.00;99.90;;;;;;5094301;28;20188;-65
2021/10/14 04:36:37;;;;;;;9.70;8.70;;;9.10;99.90;;;;;;5094125;28;20291;-65
2021/10/14 04:39:05;;;;;;;14.67;9.80;;;9.10;99.90;;;;;;5094198;28;20196;-64
2021/10/14 04:41:34;;;;;;;12.67;10.03;;;9.10;99.90;;;;;;5094045;28;20288;-66
2021/10/14 04:44:02;;;;;;;14.30;10.27;;;9.10;99.90;;;;;;5093986;28;20323;-65
2021/10/14 04:46:30;;;;;;;15.63;10.57;;;9.10;99.90;;;;;;5093885;28;20727;-66
2021/10/14 04:48:59;;;;;;;13.27;10.47;;;9.20;99.90;;;;;;5093971;28;20728;-65
2021/10/14 04:51:27;;;;;;;12.43;10.20;;;9.10;99.90;;;;;;5093815;28;20200;-66
2021/10/14 04:53:55;;;;;;;13.00;10.37;;;9.10;99.90;;;;;;5093337;28;20544;-66
2021/10/14 04:56:22;;;;;;;14.20;10.90;;;9.10;99.90;;;;;;5093381;28;20314;-65
2021/10/14 04:58:50;;;;;;;13.40;10.73;;;9.10;99.90;;;;;;5093590;28;20294;-65
2021/10/14 05:01:18;;;;;;;15.60;12.27;;;9.20;99.90;;;;;;5093954;28;20196;-66
2021/10/14 05:03:46;;;;;;;13.50;11.00;;;9.20;99.90;;;;;;5093477;28;20620;-66
2021/10/14 05:06:15;;;;;;;16.87;12.70;;;9.10;99.90;;;;;;5093249;28;20735;-66
2021/10/14 05:08:43;;;;;;;16.57;12.87;;;9.10;99.90;;;;;;5093574;28;20240;-65
2021/10/14 05:11:12;;;;;;;16.87;13.43;;;9.10;99.90;;;;;;5093090;28;20264;-66
2021/10/14 05:13:40;;;;;;;18.43;14.07;;;9.00;99.90;;;;;;5093184;28;20258;-65
2021/10/14 05:16:08;;;;;;;17.27;13.23;;;9.00;99.90;;;;;;5093209;28;20254;-66
2021/10/14 05:18:36;;;;;;;18.70;13.90;;;9.10;99.90;;;;;;5093303;28;20565;-65
2021/10/14 05:21:04;;;;;;;17.70;12.47;;;9.10;99.90;;;;;;5093071;28;20253;-64
2021/10/14 05:23:33;;;;;;;18.47;13.17;;;9.00;99.90;;;;;;5093073;28;20210;-64
2021/10/14 05:26:01;;;;;;;19.30;13.50;;;9.00;99.90;;;;;;5092776;28;20196;-65
2021/10/14 05:28:30;;;;;;;18.47;12.93;;;9.10;99.90;;;;;;5092444;28;20412;-64
2021/10/14 05:30:58;;;;;;;15.47;12.03;;;9.10;99.90;;;;;;5092857;28;20306;-65
2021/10/14 05:33:26;;;;;;;15.57;11.40;;;9.10;99.90;;;;;;5092575;28;20220;-65
2021/10/14 05:35:54;;;;;;;17.17;13.20;;;9.00;99.90;;;;;;5092850;28;20290;-64
2021/10/14 05:38:24;;;;;;;16.97;12.37;;;9.10;99.90;;;;;;5092655;28;20683;-65
2021/10/14 05:40:53;;;;;;;15.13;12.00;;;9.10;99.90;;;;;;5092976;28;20235;-65
2021/10/14 05:43:21;;;;;;;15.77;12.23;;;9.10;99.90;;;;;;5092706;28;20319;-65
2021/10/14 05:45:49;;;;;;;13.90;11.67;;;9.20;99.90;;;;;;5092578;28;20208;-65
2021/10/14 05:48:17;;;;;;;14.73;12.00;;;9.20;99.90;;;;;;5091447;28;20551;-65
2021/10/14 05:50:45;;;;;;;16.67;12.13;;;9.10;99.90;;;;;;5092290;28;20204;-65
2021/10/14 05:53:12;;;;;;;17.20;12.10;;;9.20;99.90;;;;;;5092517;28;20216;-65
2021/10/14 05:55:41;;;;;;;15.93;12.63;;;9.20;99.90;;;;;;5092727;28;20215;-65
2021/10/14 05:58:10;;;;;;;16.33;12.33;;;9.20;99.90;;;;;;5092429;28;20250;-65
2021/10/14 06:00:38;;;;;;;15.70;12.10;;;9.10;99.90;;;;;;5092360;28;20206;-64
2021/10/14 06:03:06;;;;;;;17.77;13.10;;;9.20;99.90;;;;;;5092352;28;20672;-64
2021/10/14 06:05:34;;;;;;;17.30;12.90;;;9.10;99.90;;;;;;5093348;28;20675;-65
2021/10/14 06:08:02;;;;;;;16.47;12.50;;;9.20;99.90;;;;;;5096677;28;20200;-66
2021/10/14 06:10:30;;;;;;;17.60;12.87;;;9.20;99.90;;;;;;5096647;28;20314;-65
2021/10/14 06:12:58;;;;;;;16.93;13.03;;;9.20;99.90;;;;;;5096781;28;20319;-65
2021/10/14 06:15:27;;;;;;;16.83;12.77;;;9.20;99.90;;;;;;5096556;28;20227;-64
2021/10/14 06:17:55;;;;;;;15.37;13.27;;;9.20;99.90;;;;;;5096917;28;20307;-65
2021/10/14 06:20:23;;;;;;;18.57;14.40;;;9.20;99.90;;;;;;5096676;28;20210;-64
2021/10/14 06:22:51;;;;;;;16.27;13.17;;;9.20;99.90;;;;;;5096741;28;20629;-65
2021/10/14 06:25:18;;;;;;;17.30;13.80;;;9.30;99.90;;;;;;5096587;28;20224;-65
2021/10/14 06:27:46;;;;;;;18.20;14.70;;;9.20;99.90;;;;;;5096063;28;20645;-65
2021/10/14 06:30:14;;;;;;;18.83;15.17;;;9.30;99.90;;;;;;5096527;28;20200;-64
2021/10/14 06:32:43;;;;;;;18.63;15.33;;;9.20;99.90;;;;;;5096621;28;20200;-64
2021/10/14 06:35:11;;;;;;;20.40;15.60;;;9.30;99.90;;;;;;5096351;28;20230;-65
2021/10/14 06:37:39;;;;;;;19.50;15.57;;;9.20;99.90;;;;;;5096522;28;20307;-64
2021/10/14 06:40:08;;;;;;;22.30;16.27;;;9.20;99.90;;;;;;5096055;28;20730;-65
2021/10/14 06:42:36;;;;;;;22.33;18.10;;;9.30;99.90;;;;;;5095509;28;20250;-64
2021/10/14 06:45:06;;;;;;;21.33;16.37;;;9.30;99.90;;;;;;5096204;28;20302;-64
2021/10/14 06:47:34;;;;;;;24.23;16.93;;;9.30;99.90;;;;;;5096325;28;20271;-65
2021/10/14 06:50:04;;;;;;;22.00;17.60;;;9.30;99.90;;;;;;5096152;28;20283;-65
2021/10/14 06:52:32;;;;;;;19.80;16.43;;;9.30;99.90;;;;;;5096019;28;20199;-64
2021/10/14 06:55:02;;;;;;;22.63;18.07;;;9.30;99.90;;;;;;5096206;28;20220;-65
2021/10/14 06:57:30;;;;;;;21.97;17.60;;;9.30;99.90;;;;;;5095814;28;20298;-64
2021/10/14 06:59:57;;;;;;;20.63;16.57;;;9.30;99.90;;;;;;5095681;28;20613;-64
2021/10/14 07:02:25;;;;;;;21.03;16.97;;;9.30;99.90;;;;;;5096058;28;20294;-65
2021/10/14 07:04:53;;;;;;;24.87;17.67;;;9.30;99.90;;;;;;5095864;28;20202;-66
2021/10/14 07:07:22;;;;;;;23.30;18.00;;;9.40;99.90;;;;;;5095867;28;20210;-65
2021/10/14 07:09:50;;;;;;;25.10;17.40;;;9.40;99.90;;;;;;5095581;28;20246;-65
2021/10/14 07:12:20;;;;;;;20.33;16.40;;;9.40;99.90;;;;;;5095631;28;20238;-64
2021/10/14 07:14:48;;;;;;;22.17;17.50;;;9.30;99.90;;;;;;5095405;28;20311;-65
2021/10/14 07:17:16;;;;;;;21.90;17.20;;;9.40;99.90;;;;;;5094887;28;20243;-65
2021/10/14 07:19:45;;;;;;;23.27;17.67;;;9.40;99.90;;;;;;5095287;28;20210;-64
2021/10/14 07:22:13;;;;;;;21.60;16.73;;;9.40;99.90;;;;;;5095216;28;20958;-64
2021/10/14 07:24:42;;;;;;;20.60;16.83;;;9.50;99.90;;;;;;5095257;28;20335;-65
2021/10/14 07:27:10;;;;;;;19.40;16.10;;;9.50;99.90;;;;;;5094883;28;20723;-64
2021/10/14 07:29:38;;;;;;;18.63;16.37;;;9.60;99.90;;;;;;5095404;28;20298;-65
2021/10/14 07:32:06;;;;;;;22.00;16.77;;;9.60;99.90;;;;;;5095317;28;20242;-66
2021/10/14 07:34:35;;;;;;;22.00;18.07;;;9.60;99.90;;;;;;5094918;28;20710;-65
2021/10/14 07:37:04;;;;;;;21.87;17.87;;;9.60;99.90;;;;;;5095424;28;20204;-65
2021/10/14 07:39:33;;;;;;;22.53;17.20;;;9.70;99.90;;;;;;5095081;28;20243;-64
2021/10/14 07:42:02;;;;;;;19.63;16.50;;;9.70;99.90;;;;;;5095223;28;20195;-64
2021/10/14 07:44:30;;;;;;;21.50;16.73;;;9.90;99.90;;;;;;5094966;28;20227;-64
2021/10/14 07:46:59;;;;;;;20.40;16.60;;;10.00;99.90;;;;;;5095074;28;20323;-65
2021/10/14 07:49:26;;;;;;;20.43;17.83;;;10.00;99.90;;;;;;5094915;28;20546;-65
2021/10/14 07:51:54;;;;;;;20.67;16.90;;;10.00;99.90;;;;;;5095090;28;20235;-65
2021/10/14 07:54:22;;;;;;;19.83;16.60;;;10.10;99.90;;;;;;5094391;28;20256;-65
2021/10/14 07:56:50;;;;;;;20.33;17.23;;;10.10;99.90;;;;;;5093467;28;20746;-65
2021/10/14 07:59:19;;;;;;;20.83;17.17;;;10.20;99.90;;;;;;5094605;28;20639;-65
2021/10/14 08:01:47;;;;;;;21.10;17.30;;;10.10;99.90;;;;;;5094674;28;20368;-64
2021/10/14 08:04:15;;;;;;;22.07;18.57;;;10.10;99.90;;;;;;5093477;28;20203;-64
2021/10/14 08:06:43;;;;;;;23.50;18.27;;;10.20;99.90;;;;;;5094290;28;20211;-64
2021/10/14 08:09:11;;;;;;;19.23;16.90;;;10.20;99.90;;;;;;5094337;28;20200;-65
2021/10/14 08:11:39;;;;;;;19.83;17.50;;;10.10;99.90;;;;;;5094009;28;20397;-64
2021/10/14 08:14:07;;;;;;;19.43;16.07;;;10.10;99.90;;;;;;5094184;28;20222;-65
2021/10/14 08:16:36;;;;;;;21.33;17.67;;;10.20;99.90;;;;;;5094459;28;20234;-65
2021/10/14 08:19:04;;;;;;;19.83;16.50;;;10.20;99.90;;;;;;5094103;28;20200;-65
2021/10/14 08:21:32;;;;;;;21.53;16.20;;;10.30;99.90;;;;;;5093974;28;20685;-66
2021/10/14 08:24:00;;;;;;;17.93;15.67;;;10.20;99.90;;;;;;5093944;28;20287;-64
2021/10/14 08:26:28;;;;;;;15.70;14.00;;;10.30;99.90;;;;;;5094191;28;20200;-65
2021/10/14 08:28:56;;;;;;;19.43;16.03;;;10.30;99.90;;;;;;5093131;28;20243;-64
2021/10/14 08:31:24;;;;;;;17.47;15.67;;;10.30;99.90;;;;;;5094387;28;20291;-65
2021/10/14 08:33:54;;;;;;;17.07;15.27;;;10.40;99.90;;;;;;5094112;28;20216;-64
2021/10/14 08:36:21;;;;;;;17.60;15.70;;;10.30;99.90;;;;;;5093920;28;20200;-64
2021/10/14 08:38:49;;;;;;;17.27;15.47;;;10.30;99.90;;;;;;5094038;28;20228;-64
2021/10/14 08:41:19;;;;;;;17.20;15.40;;;10.40;99.90;;;;;;5093784;28;20712;-64
2021/10/14 08:43:48;;;;;;;17.23;15.40;;;10.50;99.90;;;;;;5093613;28;20667;-65
2021/10/14 08:46:17;;;;;;;16.73;14.97;;;10.60;99.90;;;;;;5093747;28;20590;-63
2021/10/14 08:48:45;;;;;;;16.33;14.60;;;10.50;99.90;;;;;;5093602;28;20695;-65
2021/10/14 08:51:15;;;;;;;15.70;14.00;;;10.50;99.90;;;;;;5093943;28;20402;-64
2021/10/14 08:53:45;;;;;;;16.43;14.83;;;10.60;99.90;;;;;;5093633;28;20208;-65
2021/10/14 08:56:13;;;;;;;16.17;14.47;;;10.60;99.90;;;;;;5093459;28;20275;-64
2021/10/14 08:58:41;;;;;;;15.93;14.30;;;10.60;99.90;;;;;;5093314;28;20291;-66
2021/10/14 09:01:12;;;;;;;16.33;14.63;;;10.70;99.90;;;;;;5093452;28;20808;-64
2021/10/14 09:03:43;;;;;;;15.07;13.47;;;10.70;99.90;;;;;;5093466;28;20192;-64
2021/10/14 09:06:13;;;;;;;16.23;14.53;;;10.70;99.90;;;;;;5093623;28;20275;-66
2021/10/14 09:08:44;;;;;;;16.03;14.43;;;10.80;99.90;;;;;;5093435;28;20202;-63
2021/10/14 09:11:15;;;;;;;17.17;14.80;;;10.80;99.90;;;;;;5093345;28;20676;-63
2021/10/14 09:13:48;;;;;;;16.00;14.30;;;10.90;99.90;;;;;;5092889;28;20285;-64
2021/10/14 09:16:21;;;;;;;16.87;14.90;;;10.90;99.90;;;;;;5093361;28;20310;-65
2021/10/14 09:18:50;;;;;;;16.70;14.63;;;11.00;99.90;;;;;;5093252;28;20180;-66
2021/10/14 09:21:23;;;;;;;16.80;14.80;;;11.00;99.90;;;;;;5093059;28;20722;-65
2021/10/14 09:23:53;;;;;;;17.23;15.13;;;11.10;99.90;;;;;;5093326;28;20664;-65
2021/10/14 09:26:30;;;;;;;17.43;14.97;;;11.10;99.90;;;;;;5093183;28;20271;-65
2021/10/14 09:29:12;;;;;;;17.67;15.50;;;11.10;99.90;;;;;;5092841;28;20202;-64
2021/10/14 09:31:48;;;;;;;16.37;14.67;;;11.10;99.90;;;;;;5092885;28;20184;-64
2021/10/14 09:34:28;;;;;;;15.87;14.20;;;11.20;99.90;;;;;;5092925;28;20184;-65
2021/10/14 09:36:57;;;;;;;14.83;13.27;;;11.30;99.90;;;;;;5093413;28;20276;-66
2021/10/14 09:39:26;;;;;;;14.33;12.83;;;11.50;99.90;;;;;;5092971;28;20227;-68
2021/10/14 09:41:57;;;;;;;13.20;11.90;;;11.60;99.90;;;;;;5092861;28;20291;-66
2021/10/14 09:44:49;;;;;;;13.13;11.83;;;11.70;99.90;;;;;;5092788;28;20177;-65
2021/10/14 09:47:17;;;;;;;11.97;10.77;;;11.90;99.90;;;;;;5093174;28;20234;-65
2021/10/14 09:49:45;;;;;;;11.00;9.90;;;12.00;99.90;;;;;;5092834;28;20224;-65
2021/10/14 09:52:13;;;;;;;10.90;9.90;;;12.10;99.90;;;;;;5092817;28;20228;-64
2021/10/14 09:54:42;;;;;;;10.17;9.17;;;12.10;99.90;;;;;;5092658;28;20293;-64
2021/10/14 09:57:10;;;;;;;10.53;9.63;;;12.20;99.90;;;;;;5092537;28;20206;-64
2021/10/14 09:59:38;;;;;;;10.20;9.20;;;12.30;99.90;;;;;;5092800;28;20292;-65
2021/10/14 10:02:07;;;;;;;10.00;9.00;;;12.40;99.90;;;;;;5092652;28;20228;-64
2021/10/14 10:04:35;;;;;;;9.97;9.03;;;12.50;99.90;;;;;;5092805;28;20204;-66
2021/10/14 10:07:05;;;;;;;9.37;8.47;;;12.50;99.90;;;;;;5093062;28;20287;-65
2021/10/14 10:09:40;;;;;;;10.43;9.53;;;12.50;99.90;;;;;;5092415;28;20711;-65
2021/10/14 10:12:10;;;;;;;11.03;10.07;;;12.40;99.90;;;;;;5092612;28;20207;-65
2021/10/14 10:14:38;;;;;;;10.93;9.93;;;12.50;99.90;;;;;;5092655;28;20277;-67
2021/10/14 10:17:08;;;;;;;9.63;8.73;;;12.60;99.90;;;;;;5092834;28;20196;-67
2021/10/14 10:19:45;;;;;;;10.33;9.23;;;12.60;99.90;;;;;;5092732;28;20199;-66
2021/10/14 10:22:53;;;;;;;10.40;9.30;;;12.70;99.90;;;;;;5092796;28;20266;-66
2021/10/14 10:25:37;;;;;;;10.53;9.53;;;12.80;99.90;;;;;;5086415;28;20291;-65
2021/10/14 10:28:27;;;;;;;9.43;8.60;;;12.90;99.90;;;;;;5092366;28;20239;-65
2021/10/14 10:30:55;;;;;;;9.60;8.70;;;13.00;99.90;;;;;;5092222;28;20257;-64
2021/10/14 10:33:53;;;;;;;10.07;9.07;;;13.20;99.90;;;;;;5092684;28;20291;-64
2021/10/14 10:36:44;;;;;;;8.77;7.97;;;13.30;99.90;;;;;;5092661;28;20203;-64
2021/10/14 10:39:41;;;;;;;8.93;7.83;;;13.30;99.90;;;;;;5092543;28;20191;-65
2021/10/14 10:42:14;;;;;;;8.90;8.00;;;13.30;99.90;;;;;;5092496;28;20209;-63
2021/10/14 10:44:44;;;;;;;9.00;8.20;;;13.30;99.90;;;;;;5092158;28;20184;-64
2021/10/14 10:47:44;;;;;;;9.00;8.00;;;13.30;99.90;;;;;;5092605;28;20200;-64
2021/10/14 10:50:14;;;;;;;8.57;7.78;;;13.20;99.90;;;;;;5092612;28;20235;-64
2021/10/14 10:52:44;;;;;;;8.73;7.93;;;13.30;99.90;;;;;;5095271;28;20235;-65
2021/10/14 10:55:16;;;;;;;8.90;8.10;;;13.30;99.90;;;;;;5096063;28;20226;-65
2021/10/14 10:57:45;;;;;;;8.05;7.35;;;13.10;99.90;;;;;;5095873;28;20648;-66
2021/10/14 11:00:15;;;;;;;7.95;7.35;;;13.20;99.90;;;;;;5096108;28;20231;-64
2021/10/14 11:02:43;;;;;;;7.75;7.05;;;13.40;99.90;;;;;;5096131;28;20223;-65
2021/10/14 11:05:12;;;;;;;7.70;6.95;;;13.50;99.90;;;;;;5095911;28;20199;-64
2021/10/14 11:07:40;;;;;;;7.65;6.95;;;13.40;99.90;;;;;;5095992;28;20204;-66
2021/10/14 11:10:08;;;;;;;7.80;7.00;;;13.40;99.90;;;;;;5095513;28;20275;-64
2021/10/14 11:12:36;;;;;;;7.80;7.10;;;13.50;99.90;;;;;;5095533;28;20249;-65
2021/10/14 11:15:18;;;;;;;7.15;6.50;;;13.40;99.90;;;;;;5095473;28;20200;-65
2021/10/14 11:17:47;;;;;;;7.18;6.47;;;13.50;99.90;;;;;;5095806;28;20206;-65
2021/10/14 11:20:15;;;;;;;6.72;6.05;;;13.60;99.90;;;;;;5095682;28;20227;-64
2021/10/14 11:22:48;;;;;;;7.75;7.07;;;13.70;99.90;;;;;;5095444;28;20240;-65
2021/10/14 11:25:17;;;;;;;7.40;6.70;;;13.50;99.90;;;;;;5095686;28;20535;-66
2021/10/14 11:28:01;;;;;;;7.53;6.83;;;13.50;99.90;;;;;;5095083;28;20287;-65
2021/10/14 11:30:39;;;;;;;8.07;7.28;;;13.50;99.90;;;;;;5095364;28;20275;-65
2021/10/14 11:33:29;;;;;;;7.00;6.35;;;13.70;99.90;;;;;;5095632;28;20639;-65
2021/10/14 11:35:59;;;;;;;8.15;7.13;;;13.50;99.90;;;;;;5095337;28;20215;-64
2021/10/14 11:38:27;;;;;;;7.95;6.95;;;13.40;99.90;;;;;;5095310;28;20295;-65
2021/10/14 11:40:56;;;;;;;7.63;6.65;;;13.40;99.90;;;;;;5095605;28;20227;-64
2021/10/14 11:43:28;;;;;;;7.97;7.20;;;13.30;99.90;;;;;;5094878;28;20262;-65
2021/10/14 11:45:59;;;;;;;7.73;6.93;;;13.30;99.90;;;;;;5095242;28;20259;-66
2021/10/14 11:48:32;;;;;;;7.30;6.60;;;13.30;99.90;;;;;;5095451;28;20191;-65
2021/10/14 11:51:04;;;;;;;7.47;6.72;;;13.30;99.90;;;;;;5095087;28;20290;-65
2021/10/14 11:53:32;;;;;;;8.13;7.35;;;13.30;99.90;;;;;;5095374;28;20199;-65
2021/10/14 11:56:02;;;;;;;8.32;7.53;;;13.30;99.90;;;;;;5095990;28;20307;-64
2021/10/14 11:58:31;;;;;;;7.87;7.17;;;13.40;99.90;;;;;;5094756;28;20180;-64
2021/10/14 12:01:04;;;;;;;8.05;7.35;;;13.30;99.90;;;;;;5094902;28;20215;-64
2021/10/14 12:03:34;;;;;;;8.80;7.80;;;13.30;99.90;;;;;;5093490;28;20190;-65
2021/10/14 12:06:03;;;;;;;8.43;7.53;;;13.30;99.90;;;;;;5094967;28;20180;-64
2021/10/14 12:08:32;;;;;;;8.65;7.20;;;13.30;99.90;;;;;;5094731;28;20228;-65
2021/10/14 12:11:00;;;;;;;7.90;7.20;;;13.30;99.90;;;;;;5094271;28;20774;-65
2021/10/14 12:13:30;;;;;;;9.50;8.60;;;13.30;99.90;;;;;;5094188;28;20553;-64
2021/10/14 12:16:11;;;;;;;9.30;8.50;;;13.20;99.90;;;;;;5094586;28;20295;-65
2021/10/14 12:18:39;;;;;;;9.95;8.75;;;13.20;99.90;;;;;;5094639;28;20241;-65
2021/10/14 12:21:31;;;;;;;10.00;9.10;;;13.20;99.90;;;;;;5094507;28;20208;-64
2021/10/14 12:24:08;;;;;;;9.40;8.40;;;13.10;99.90;;;;;;5094442;28;20223;-65
2021/10/14 12:26:38;;;;;;;10.60;9.50;;;13.10;99.90;;;;;;5094293;28;20267;-64
2021/10/14 12:29:29;;;;;;;10.00;9.03;;;13.10;99.90;;;;;;5094281;28;20275;-65
2021/10/14 12:32:10;;;;;;;10.80;9.63;;;13.20;99.90;;;;;;5094132;28;20188;-64
2021/10/14 12:34:42;;;;;;;9.10;8.20;;;13.40;99.90;;;;;;5094188;28;20707;-64
2021/10/14 12:37:12;;;;;;;9.60;7.80;;;13.50;99.90;;;;;;5093943;28;20281;-64
2021/10/14 12:39:41;;;;;;;8.23;7.43;;;13.60;99.90;;;;;;5094264;28;20235;-64
2021/10/14 12:42:10;;;;;;;7.93;6.82;;;13.50;99.90;;;;;;5094022;28;20291;-64
2021/10/14 12:44:56;;;;;;;8.85;7.65;;;13.50;99.90;;;;;;5093648;28;20314;-65
2021/10/14 12:47:41;;;;;;;7.55;6.43;;;13.70;99.90;;;;;;5093831;28;20181;-64
2021/10/14 12:50:20;;;;;;;7.77;6.77;;;13.70;99.90;;;;;;5093720;28;20599;-64
2021/10/14 12:53:12;;;;;;;7.00;6.30;;;13.70;99.90;;;;;;5093807;28;20694;-64
2021/10/14 12:55:58;;;;;;;8.50;6.90;;;13.60;99.90;;;;;;5093996;28;20192;-64